Apache, Nevada
Current Conditions -  °F | °C
As of 9:56 PM on Monday 20 Oct 2014 (Local Time) from KWMC Reporting Station
Overcast Overcast  
Wind Chill: 14°   Ceiling: 11000
Heat Index: 14°   Visibility: 10mi
Dew Point: -2°   Wind: 3mph
Humidity: 32%   Direction: NA
Pressure: 29.86"   Gusts: NA
Location:  40.601°N, 117.984°W
Report Text: KWMC 210456Z AUTO VRB03KT 10SM OVC110 14/M02 A2986 RMK AO2 SLP083 T01441022
Loading
Personal Weather Stations






























Interactive Weather Map
Tropical Storm Tracking
New forecast layout! Learn more

10-Day Weather Forecast

Advertisements
Track Severe Weather on mobile